Time;durP1;ratioP1;P1;durP2;ratioP2;P2;SDS_P1;SDS_P2;PMS_P1;PMS_P2;Temp;Humidity;BMP_temperature;BMP_pressure;BME280_temperature;BME280_humidity;BME280_pressure;Samples;Min_cycle;Max_cycle;Signal;HPM_P1;HPM_P2
2024/04/15 00:01:18;;;;;;;7.30;3.30;;;;;;;8.33;43.54;99847.52;102751;1263;115843;-78
2024/04/15 00:03:52;;;;;;;10.30;3.80;;;;;;;8.32;43.55;99844.77;102570;1264;137843;-78
2024/04/15 00:06:19;;;;;;;9.60;3.80;;;;;;;8.31;43.62;99844.30;102760;1267;100485;-80
2024/04/15 00:08:46;;;;;;;8.20;3.70;;;;;;;8.27;43.83;99848.24;102637;1267;139703;-79
2024/04/15 00:11:12;;;;;;;10.80;3.80;;;;;;;8.23;44.01;99851.45;102636;1264;100550;-81
2024/04/15 00:13:39;;;;;;;11.30;3.90;;;;;;;8.18;44.12;99853.13;102718;1267;114300;-81
2024/04/15 00:16:09;;;;;;;8.40;3.60;;;;;;;8.14;44.22;99851.87;102492;1264;139016;-81
2024/04/15 00:18:36;;;;;;;8.70;3.60;;;;;;;8.12;44.33;99854.55;102920;1268;100548;-81
2024/04/15 00:21:04;;;;;;;8.50;3.70;;;;;;;8.06;44.54;99846.39;102586;1263;138352;-80
2024/04/15 00:23:31;;;;;;;8.20;3.40;;;;;;;8.01;44.75;99842.20;102723;1264;100417;-80
2024/04/15 00:25:59;;;;;;;7.80;3.50;;;;;;;7.98;44.80;99837.27;102735;1264;114805;-82
2024/04/15 00:28:26;;;;;;;8.70;4.30;;;;;;;7.97;45.07;99831.08;102738;1267;107898;-82
2024/04/15 00:30:53;;;;;;;9.40;3.50;;;;;;;7.96;45.15;99826.25;102662;1264;101060;-81
2024/04/15 00:33:20;;;;;;;7.90;3.70;;;;;;;7.94;45.34;99827.19;102559;1264;139603;-80
2024/04/15 00:35:48;;;;;;;8.40;4.20;;;;;;;7.92;45.33;99824.31;102695;1263;101216;-78
2024/04/15 00:38:15;;;;;;;7.70;3.50;;;;;;;7.90;45.44;99825.21;102625;1263;138062;-78
2024/04/15 00:40:42;;;;;;;10.70;3.80;;;;;;;7.89;45.41;99828.52;102713;1264;106875;-78
2024/04/15 00:43:10;;;;;;;10.90;3.70;;;;;;;7.87;45.56;99825.94;102750;1263;100520;-76
2024/04/15 00:45:37;;;;;;;10.90;3.70;;;;;;;7.87;45.75;99821.80;102750;1263;138660;-77
2024/04/15 00:48:08;;;;;;;8.50;3.50;;;;;;;7.86;45.68;99826.52;102773;1267;100541;-78
2024/04/15 00:50:38;;;;;;;8.90;3.30;;;;;;;7.85;45.81;99824.98;102684;1267;138007;-78
2024/04/15 00:53:06;;;;;;;10.80;3.80;;;;;;;7.83;45.90;99815.17;102829;1263;107180;-77
2024/04/15 00:55:35;;;;;;;9.50;3.20;;;;;;;7.81;45.95;99811.59;102742;1264;100591;-77
2024/04/15 00:58:03;;;;;;;11.30;3.60;;;;;;;7.79;45.86;99811.66;102551;1267;137817;-77
2024/04/15 01:00:31;;;;;;;11.80;3.40;;;;;;;7.78;45.92;99809.80;102695;1267;100518;-77
2024/04/15 01:02:59;;;;;;;7.60;3.70;;;;;;;7.73;45.97;99802.65;102685;1267;139388;-77
2024/04/15 01:05:27;;;;;;;9.40;3.50;;;;;;;7.73;46.25;99800.60;102688;1264;108252;-77
2024/04/15 01:07:54;;;;;;;6.90;3.60;;;;;;;7.72;46.34;99792.31;102602;1264;101143;-80
2024/04/15 01:10:21;;;;;;;11.90;4.20;;;;;;;7.70;46.39;99790.61;102482;1265;137183;-77
2024/04/15 01:12:48;;;;;;;9.20;3.50;;;;;;;7.68;46.46;99785.65;102518;1265;100427;-78
2024/04/15 01:15:15;;;;;;;12.50;3.70;;;;;;;7.65;46.58;99782.27;102569;1264;137898;-76
2024/04/15 01:17:43;;;;;;;7.00;3.20;;;;;;;7.63;46.63;99774.58;102683;1264;108690;-77
2024/04/15 01:20:11;;;;;;;7.00;3.70;;;;;;;7.59;46.70;99767.23;102633;1267;138065;-77
2024/04/15 01:22:42;;;;;;;7.40;3.50;;;;;;;7.58;46.74;99753.42;102668;1263;107316;-79
2024/04/15 01:25:10;;;;;;;7.70;3.50;;;;;;;7.57;46.94;99754.30;102784;1267;100670;-79
2024/04/15 01:27:37;;;;;;;8.90;3.20;;;;;;;7.56;46.92;99749.52;102780;1264;138270;-80
2024/04/15 01:30:04;;;;;;;7.90;3.40;;;;;;;7.55;46.97;99748.85;102737;1263;107696;-80
2024/04/15 01:32:32;;;;;;;10.70;3.40;;;;;;;7.54;47.16;99742.62;102775;1264;138802;-80
2024/04/15 01:34:59;;;;;;;7.50;3.60;;;;;;;7.55;47.08;99745.38;102880;1263;107310;-79
2024/04/15 01:37:26;;;;;;;12.30;3.50;;;;;;;7.54;47.27;99747.11;102834;1263;100533;-80
2024/04/15 01:39:53;;;;;;;13.10;3.60;;;;;;;7.53;47.19;99744.88;102991;1263;137184;-78
2024/04/15 01:42:20;;;;;;;7.00;3.40;;;;;;;7.53;47.37;99744.02;102939;1267;106134;-79
2024/04/15 01:44:48;;;;;;;6.30;3.40;;;;;;;7.51;47.36;99737.16;102927;1267;136787;-79
2024/04/15 01:47:15;;;;;;;16.10;4.00;;;;;;;7.47;47.50;99730.20;103517;1263;106763;-78
2024/04/15 01:49:42;;;;;;;11.10;4.00;;;;;;;7.48;47.49;99730.33;102860;1267;100615;-79
2024/04/15 01:52:09;;;;;;;8.70;3.70;;;;;;;7.47;47.72;99729.49;102666;1263;138971;-79
2024/04/15 01:54:36;;;;;;;8.90;3.50;;;;;;;7.46;47.73;99729.02;102553;1264;109617;-79
2024/04/15 01:57:03;;;;;;;10.60;4.20;;;;;;;7.45;47.88;99723.50;102606;1264;139145;-79
2024/04/15 01:59:30;;;;;;;10.10;4.30;;;;;;;7.44;47.80;99715.92;102916;1263;106828;-79
2024/04/15 02:01:57;;;;;;;10.50;4.30;;;;;;;7.44;47.94;99709.86;102645;1267;101581;-80
2024/04/15 02:04:25;;;;;;;8.80;4.20;;;;;;;7.43;48.09;99703.50;102681;1264;114557;-79
2024/04/15 02:06:52;;;;;;;9.00;4.00;;;;;;;7.43;48.20;99703.52;102781;1263;105682;-79
2024/04/15 02:09:19;;;;;;;9.60;3.70;;;;;;;7.42;48.24;99699.73;102587;1267;138048;-79
2024/04/15 02:11:46;;;;;;;10.40;4.40;;;;;;;7.41;48.20;99694.41;102656;1267;107317;-78
2024/04/15 02:14:13;;;;;;;10.30;4.50;;;;;;;7.39;48.25;99689.44;102584;1265;138750;-78
2024/04/15 02:16:40;;;;;;;12.20;4.00;;;;;;;7.38;48.25;99684.98;102704;1267;113976;-78
2024/04/15 02:19:06;;;;;;;9.40;3.90;;;;;;;7.37;48.23;99687.06;102546;1264;107332;-78
2024/04/15 02:21:33;;;;;;;16.60;4.00;;;;;;;7.36;48.49;99695.22;102553;1267;138662;-78
2024/04/15 02:24:00;;;;;;;11.60;3.90;;;;;;;7.38;48.59;99698.98;102603;1267;106927;-78
2024/04/15 02:26:27;;;;;;;10.00;3.40;;;;;;;7.39;48.51;99699.81;102590;1267;139333;-77
2024/04/15 02:28:54;;;;;;;10.60;3.60;;;;;;;7.41;48.49;99689.90;102621;1269;113990;-78
2024/04/15 02:31:21;;;;;;;9.10;3.60;;;;;;;7.38;48.66;99683.73;102663;1267;105781;-78
2024/04/15 02:33:48;;;;;;;10.60;3.80;;;;;;;7.39;48.72;99691.67;102524;1267;137903;-78
2024/04/15 02:36:15;;;;;;;9.10;4.00;;;;;;;7.40;48.86;99682.15;102576;1270;107104;-80
2024/04/15 02:38:41;;;;;;;10.30;3.40;;;;;;;7.40;48.83;99681.11;102448;1267;138145;-79
2024/04/15 02:41:08;;;;;;;13.70;4.10;;;;;;;7.40;48.83;99685.60;102576;1264;113670;-79
2024/04/15 02:43:35;;;;;;;9.90;3.50;;;;;;;7.41;48.82;99694.02;102389;1264;107971;-79
2024/04/15 02:46:02;;;;;;;10.00;3.70;;;;;;;7.42;48.99;99691.77;102576;1265;137802;-79
2024/04/15 02:48:28;;;;;;;8.80;3.40;;;;;;;7.42;49.10;99700.08;102594;1269;108247;-79
2024/04/15 02:50:55;;;;;;;11.50;3.60;;;;;;;7.44;49.17;99707.63;101813;1267;1002856;-79
2024/04/15 02:53:22;;;;;;;11.80;4.00;;;;;;;7.44;49.20;99716.09;102538;1267;113795;-79
2024/04/15 02:55:50;;;;;;;10.10;3.70;;;;;;;7.44;49.20;99723.36;102576;1264;107644;-79
2024/04/15 02:58:17;;;;;;;9.00;3.70;;;;;;;7.48;49.31;99718.75;101848;1263;1002582;-77
2024/04/15 03:00:43;;;;;;;7.60;3.40;;;;;;;7.48;49.29;99719.80;102605;1269;107320;-79
2024/04/15 03:03:10;;;;;;;11.70;3.90;;;;;;;7.48;49.35;99725.15;102595;1264;137967;-79
2024/04/15 03:05:43;;;;;;;7.60;3.90;;;;;;;7.47;49.44;99725.86;102729;1263;113831;-79
2024/04/15 03:08:10;;;;;;;13.20;4.20;;;;;;;7.46;49.45;99717.25;102578;1264;137355;-79
2024/04/15 03:10:37;;;;;;;13.10;3.80;;;;;;;7.45;49.50;99707.40;102726;1263;100433;-78
2024/04/15 03:13:04;;;;;;;8.30;3.90;;;;;;;7.44;49.56;99698.97;102750;1264;107481;-79
2024/04/15 03:15:31;;;;;;;13.30;3.90;;;;;;;7.43;49.59;99701.43;102603;1267;138716;-80
2024/04/15 03:17:58;;;;;;;10.30;3.70;;;;;;;7.43;49.57;99702.45;102602;1263;114175;-78
2024/04/15 03:20:28;;;;;;;10.10;3.40;;;;;;;7.43;49.76;99698.83;102455;1263;138397;-78
2024/04/15 03:22:55;;;;;;;11.50;4.00;;;;;;;7.41;49.65;99692.15;102629;1264;100616;-78
2024/04/15 03:25:23;;;;;;;11.40;4.10;;;;;;;7.41;49.63;99694.23;102722;1265;107974;-78
2024/04/15 03:27:50;;;;;;;9.40;3.70;;;;;;;7.41;49.92;99688.50;102554;1263;138250;-78
2024/04/15 03:30:17;;;;;;;8.60;3.20;;;;;;;7.40;49.92;99695.29;102543;1263;114735;-79
2024/04/15 03:32:44;;;;;;;11.60;4.50;;;;;;;7.41;49.93;99688.70;102474;1264;139657;-79
2024/04/15 03:35:14;;;;;;;11.90;4.20;;;;;;;7.42;50.15;99683.97;102681;1263;101144;-80
2024/04/15 03:37:42;;;;;;;12.50;3.90;;;;;;;7.42;50.28;99686.41;102706;1265;107892;-79
2024/04/15 03:40:11;;;;;;;12.30;4.30;;;;;;;7.42;50.35;99686.57;101862;1263;1003504;-80
2024/04/15 03:42:38;;;;;;;10.00;4.10;;;;;;;7.43;50.57;99689.15;102717;1264;113313;-80
2024/04/15 03:45:06;;;;;;;15.50;4.60;;;;;;;7.45;50.52;99696.36;102595;1267;138984;-79
2024/04/15 03:47:33;;;;;;;11.70;4.30;;;;;;;7.48;50.62;99705.95;102780;1263;101843;-80
2024/04/15 03:50:00;;;;;;;17.10;4.20;;;;;;;7.49;50.61;99706.25;102733;1264;107664;-80
2024/04/15 03:52:27;;;;;;;10.70;3.80;;;;;;;7.50;50.59;99696.89;102627;1264;100501;-80
2024/04/15 03:54:54;;;;;;;9.90;4.00;;;;;;;7.52;50.62;99689.73;102719;1264;115661;-80
2024/04/15 03:57:21;;;;;;;9.80;4.00;;;;;;;7.55;50.70;99679.96;102669;1267;138140;-81
2024/04/15 03:59:48;;;;;;;14.10;4.00;;;;;;;7.56;50.69;99669.39;102711;1264;101125;-81
2024/04/15 04:02:16;;;;;;;11.20;4.20;;;;;;;7.54;50.72;99654.56;102495;1267;138293;-81
2024/04/15 04:04:42;;;;;;;15.70;4.20;;;;;;;7.51;50.83;99645.48;102738;1263;100674;-81
2024/04/15 04:07:09;;;;;;;8.90;4.10;;;;;;;7.50;50.71;99642.04;102704;1263;112725;-81
2024/04/15 04:09:38;;;;;;;15.60;3.60;;;;;;;7.51;50.87;99642.55;102532;1264;136826;-80
2024/04/15 04:12:05;;;;;;;9.50;3.70;;;;;;;7.50;50.85;99641.85;102660;1263;100542;-78
2024/04/15 04:14:32;;;;;;;11.20;3.70;;;;;;;7.53;51.12;99637.64;102543;1267;138223;-78
2024/04/15 04:17:00;;;;;;;10.40;4.10;;;;;;;7.59;50.99;99637.65;102534;1267;100554;-79
2024/04/15 04:19:33;;;;;;;14.20;4.30;;;;;;;7.63;51.01;99643.05;102546;1267;113597;-79
2024/04/15 04:22:00;;;;;;;10.30;4.00;;;;;;;7.68;50.90;99644.27;102420;1265;139234;-79
2024/04/15 04:24:28;;;;;;;7.60;3.70;;;;;;;7.75;51.00;99648.61;102491;1264;100619;-78
2024/04/15 04:26:54;;;;;;;10.40;3.40;;;;;;;7.78;50.77;99652.13;102420;1265;138110;-78
2024/04/15 04:29:21;;;;;;;12.30;4.10;;;;;;;7.84;50.94;99657.99;102424;1267;100517;-80
2024/04/15 04:31:48;;;;;;;9.00;4.20;;;;;;;7.87;50.76;99658.22;102534;1267;113585;-79
2024/04/15 04:34:15;;;;;;;12.60;4.00;;;;;;;7.89;50.57;99651.98;102564;1264;137757;-80
2024/04/15 04:36:42;;;;;;;10.10;3.70;;;;;;;7.94;50.76;99655.46;102756;1263;100662;-79
2024/04/15 04:39:10;;;;;;;11.80;3.90;;;;;;;7.97;50.76;99657.79;102574;1267;138016;-79
2024/04/15 04:41:36;;;;;;;12.20;4.20;;;;;;;8.01;50.75;99653.84;103170;1265;100525;-78
2024/04/15 04:44:03;;;;;;;10.00;3.80;;;;;;;8.03;50.80;99650.14;102693;1264;113711;-78
2024/04/15 04:46:30;;;;;;;7.50;4.10;;;;;;;8.01;50.64;99650.73;102663;1266;108389;-78
2024/04/15 04:48:57;;;;;;;9.90;4.50;;;;;;;8.01;50.70;99644.84;102595;1270;100605;-77
2024/04/15 04:51:24;;;;;;;7.50;3.70;;;;;;;8.01;50.64;99636.17;102589;1263;138396;-78
2024/04/15 04:53:50;;;;;;;12.30;4.20;;;;;;;8.02;50.67;99621.09;102695;1264;100504;-78
2024/04/15 04:56:17;;;;;;;13.10;4.20;;;;;;;8.00;50.75;99623.06;102604;1264;138351;-77
2024/04/15 04:58:45;;;;;;;19.10;4.20;;;;;;;7.97;50.94;99623.31;102657;1263;107634;-79
2024/04/15 05:01:13;;;;;;;10.70;3.90;;;;;;;7.99;50.95;99624.84;102641;1267;101381;-79
2024/04/15 05:03:43;;;;;;;10.60;3.70;;;;;;;8.00;50.91;99622.89;102384;1265;138239;-80
2024/04/15 05:06:11;;;;;;;10.80;4.30;;;;;;;8.00;50.92;99620.80;102653;1263;100504;-79
2024/04/15 05:08:38;;;;;;;10.40;4.00;;;;;;;8.03;50.95;99627.83;102733;1265;138127;-80
2024/04/15 05:11:06;;;;;;;15.30;4.70;;;;;;;8.05;51.05;99629.82;102632;1267;106861;-79
2024/04/15 05:13:33;;;;;;;13.60;4.60;;;;;;;8.11;51.03;99639.66;102703;1264;100417;-79
2024/04/15 05:16:05;;;;;;;11.60;3.90;;;;;;;8.18;51.14;99638.92;102512;1264;139246;-79
2024/04/15 05:18:33;;;;;;;11.50;4.40;;;;;;;8.24;51.05;99637.33;102623;1267;100545;-81
2024/04/15 05:21:01;;;;;;;9.40;4.10;;;;;;;8.26;50.95;99647.67;102586;1264;138152;-80
2024/04/15 05:23:28;;;;;;;9.40;4.10;;;;;;;8.30;51.03;99642.17;102215;1267;317396;-80
2024/04/15 05:25:57;;;;;;;12.90;4.20;;;;;;;8.34;50.88;99628.22;102718;1264;102458;-77
2024/04/15 05:28:24;;;;;;;12.60;4.20;;;;;;;8.36;50.85;99624.86;102474;1263;138362;-80
2024/04/15 05:30:52;;;;;;;17.70;4.50;;;;;;;8.40;50.71;99616.77;102719;1265;101170;-81
2024/04/15 05:33:19;;;;;;;14.40;4.30;;;;;;;8.43;50.68;99617.35;102504;1264;138097;-81
2024/04/15 05:35:46;;;;;;;9.10;4.30;;;;;;;8.47;50.47;99622.59;101924;1264;1002937;-78
2024/04/15 05:38:14;;;;;;;16.90;4.30;;;;;;;8.50;50.47;99614.52;102691;1267;139025;-84
2024/04/15 05:40:41;;;;;;;11.90;4.70;;;;;;;8.52;50.52;99618.63;102674;1265;107191;-82
2024/04/15 05:43:09;;;;;;;15.70;4.50;;;;;;;8.53;50.37;99619.29;102729;1267;100551;-81
2024/04/15 05:45:37;;;;;;;14.20;4.10;;;;;;;8.55;50.48;99617.48;102638;1263;138292;-81
2024/04/15 05:48:04;;;;;;;21.00;4.30;;;;;;;8.57;50.44;99620.17;102725;1264;107090;-81
2024/04/15 05:50:31;;;;;;;11.70;4.50;;;;;;;8.60;50.52;99626.13;102599;1267;138720;-82
2024/04/15 05:52:58;;;;;;;17.20;4.40;;;;;;;8.62;50.59;99632.30;102638;1265;108629;-82
2024/04/15 05:55:26;;;;;;;17.90;4.60;;;;;;;8.64;50.83;99624.63;102705;1264;100691;-80
2024/04/15 05:57:53;;;;;;;10.60;4.50;;;;;;;8.62;51.18;99621.58;102581;1265;138042;-75
2024/04/15 06:00:22;;;;;;;16.70;4.70;;;;;;;8.61;51.51;99620.91;102539;1265;109546;-82
2024/04/15 06:02:49;;;;;;;23.00;5.10;;;;;;;8.62;51.70;99620.35;102381;1264;137950;-80
2024/04/15 06:05:16;;;;;;;15.20;4.80;;;;;;;8.63;51.80;99616.17;102491;1265;107382;-80
2024/04/15 06:07:43;;;;;;;14.40;5.80;;;;;;;8.67;51.63;99615.34;102581;1265;100538;-84
2024/04/15 06:10:10;;;;;;;19.90;6.20;;;;;;;8.68;51.93;99618.41;102560;1267;138196;-81
2024/04/15 06:12:37;;;;;;;18.90;6.40;;;;;;;8.66;51.95;99613.80;102547;1265;106347;-81
2024/04/15 06:15:05;;;;;;;16.30;5.90;;;;;;;8.62;52.00;99616.02;102441;1263;138178;-79
2024/04/15 06:17:32;;;;;;;19.80;5.80;;;;;;;8.59;51.99;99619.42;102668;1265;107967;-79
2024/04/15 06:19:59;;;;;;;14.80;5.20;;;;;;;8.56;52.16;99623.16;102462;1264;101771;-81
2024/04/15 06:22:26;;;;;;;18.70;4.60;;;;;;;8.50;52.06;99620.27;102623;1267;112011;-80
2024/04/15 06:24:57;;;;;;;17.60;4.80;;;;;;;8.46;51.99;99610.84;102588;1265;108648;-80
2024/04/15 06:27:36;;;;;;;9.70;4.20;;;;;;;8.50;52.15;99615.23;102500;1265;138132;-81
2024/04/15 06:30:05;;;;;;;13.10;4.90;;;;;;;8.48;52.30;99604.55;102645;1265;108206;-80
2024/04/15 06:32:32;;;;;;;18.80;5.30;;;;;;;8.42;52.44;99610.81;102535;1264;138262;-79
2024/04/15 06:34:59;;;;;;;12.80;4.70;;;;;;;8.39;52.61;99620.07;102723;1267;113247;-83
2024/04/15 06:37:26;;;;;;;25.80;5.70;;;;;;;8.40;52.73;99628.02;102599;1267;107464;-81
2024/04/15 06:39:53;;;;;;;17.70;5.50;;;;;;;8.40;52.96;99620.89;102534;1264;138036;-79
2024/04/15 06:42:20;;;;;;;11.70;4.30;;;;;;;8.42;53.03;99623.95;102658;1267;107776;-79
2024/04/15 06:44:47;;;;;;;14.00;4.90;;;;;;;8.43;53.21;99622.90;102556;1267;138707;-81
2024/04/15 06:47:14;;;;;;;16.70;5.50;;;;;;;8.41;53.49;99625.73;102571;1267;114450;-80
2024/04/15 06:49:41;;;;;;;17.70;5.60;;;;;;;8.40;53.74;99627.14;102668;1264;107170;-78
2024/04/15 06:52:08;;;;;;;13.50;4.90;;;;;;;8.40;54.04;99620.40;102474;1264;139128;-80
2024/04/15 06:54:36;;;;;;;15.30;5.00;;;;;;;8.42;54.29;99621.53;102672;1267;107911;-79
2024/04/15 06:57:03;;;;;;;15.30;4.70;;;;;;;8.41;54.56;99614.65;102515;1263;139165;-78
2024/04/15 06:59:30;;;;;;;16.40;5.00;;;;;;;8.39;54.76;99600.88;102726;1265;113384;-78
2024/04/15 07:01:58;;;;;;;16.60;4.70;;;;;;;8.40;54.95;99589.21;102448;1267;107718;-78
2024/04/15 07:04:28;;;;;;;12.70;4.70;;;;;;;8.43;55.23;99591.20;102474;1265;138662;-81
2024/04/15 07:06:55;;;;;;;15.50;4.50;;;;;;;8.49;55.42;99598.45;102546;1265;108431;-79
2024/04/15 07:09:21;;;;;;;17.50;4.60;;;;;;;8.57;55.58;99596.96;102879;1264;138850;-74
2024/04/15 07:11:48;;;;;;;12.30;4.70;;;;;;;8.64;55.75;99599.17;103142;1263;1002383;-78
2024/04/15 07:14:14;;;;;;;;;;;;;;;8.71;55.76;99599.59;102855;1265;140012;-78
2024/04/15 07:16:40;;;;;;;11.70;3.90;;;;;;;8.77;56.10;99592.79;102572;1265;101067;-77
2024/04/15 07:19:07;;;;;;;13.50;4.20;;;;;;;8.85;56.08;99593.73;102618;1263;108962;-79
2024/04/15 07:21:34;;;;;;;12.10;3.90;;;;;;;8.93;56.28;99589.79;102469;1267;138769;-79
2024/04/15 07:24:01;;;;;;;12.90;3.20;;;;;;;8.99;56.24;99588.36;102402;1265;113680;-79
2024/04/15 07:26:28;;;;;;;11.90;3.50;;;;;;;9.03;56.40;99582.84;102168;1265;139760;-80
2024/04/15 07:28:55;;;;;;;15.70;3.20;;;;;;;9.06;56.47;99582.05;102579;1265;101106;-80
2024/04/15 07:31:22;;;;;;;12.50;3.20;;;;;;;9.07;56.74;99588.41;102703;1265;107662;-78
2024/04/15 07:33:49;;;;;;;8.90;3.10;;;;;;;9.11;57.00;99594.86;102451;1265;137989;-78
2024/04/15 07:36:19;;;;;;;9.70;2.90;;;;;;;9.16;57.09;99591.77;102595;1265;112170;-78
2024/04/15 07:38:47;;;;;;;9.60;3.00;;;;;;;9.16;57.22;99586.71;102386;1265;139025;-78
2024/04/15 07:41:14;;;;;;;13.90;3.30;;;;;;;9.15;57.35;99587.60;102484;1264;102232;-79
2024/04/15 07:43:41;;;;;;;13.50;3.70;;;;;;;9.17;57.60;99579.22;102490;1267;108229;-78
2024/04/15 07:46:08;;;;;;;10.80;2.90;;;;;;;9.21;57.66;99573.33;102437;1265;139102;-78
2024/04/15 07:48:35;;;;;;;13.50;4.20;;;;;;;9.24;57.98;99566.61;102557;1267;113314;-78
2024/04/15 07:51:01;;;;;;;8.70;3.50;;;;;;;9.29;57.92;99569.91;102474;1267;138933;-78
2024/04/15 07:53:28;;;;;;;10.50;3.50;;;;;;;9.36;58.12;99577.29;103064;1265;100548;-77
2024/04/15 07:55:55;;;;;;;9.50;3.20;;;;;;;9.41;57.99;99578.66;103267;1265;106494;-76
2024/04/15 07:58:22;;;;;;;11.00;3.30;;;;;;;9.41;57.99;99574.84;102041;1267;1002631;-77
2024/04/15 08:00:49;;;;;;;14.30;3.40;;;;;;;9.41;58.06;99569.61;102776;1267;113249;-77
2024/04/15 08:03:16;;;;;;;10.60;3.80;;;;;;;9.46;58.10;99566.83;102708;1264;138085;-77
2024/04/15 08:05:44;;;;;;;7.10;2.80;;;;;;;9.56;58.14;99562.98;102802;1264;100403;-80
2024/04/15 08:08:11;;;;;;;12.90;3.80;;;;;;;9.66;58.10;99562.05;102412;1267;138968;-76
2024/04/15 08:10:38;;;;;;;6.40;2.80;;;;;;;9.81;58.00;99568.40;102417;1267;100537;-76
2024/04/15 08:13:05;;;;;;;10.80;3.00;;;;;;;9.95;57.71;99557.26;102463;1264;113399;-76
2024/04/15 08:15:32;;;;;;;7.60;2.60;;;;;;;9.97;57.46;99555.60;102359;1267;138944;-77
2024/04/15 08:17:59;;;;;;;12.20;3.00;;;;;;;10.00;57.33;99550.79;102526;1264;100622;-75
2024/04/15 08:20:27;;;;;;;12.40;3.50;;;;;;;10.07;57.40;99543.56;102449;1267;139316;-78
2024/04/15 08:22:54;;;;;;;6.60;2.80;;;;;;;10.20;57.37;99530.17;102546;1264;100737;-77
2024/04/15 08:25:21;;;;;;;10.30;3.20;;;;;;;10.43;57.04;99529.59;102441;1270;114010;-78
2024/04/15 08:27:47;;;;;;;5.10;2.30;;;;;;;10.69;56.55;99537.30;102546;1265;139768;-78
2024/04/15 08:30:15;;;;;;;7.70;2.90;;;;;;;10.82;56.09;99544.91;102543;1265;100430;-78
2024/04/15 08:32:42;;;;;;;6.50;3.10;;;;;;;10.95;55.93;99547.27;102447;1267;138501;-80
2024/04/15 08:35:10;;;;;;;8.80;2.70;;;;;;;11.18;55.54;99544.14;102609;1267;100538;-73
2024/04/15 08:37:37;;;;;;;7.80;2.70;;;;;;;11.33;55.02;99546.08;102628;1265;113864;-77
2024/04/15 08:40:04;;;;;;;11.50;3.20;;;;;;;11.43;54.72;99546.26;102465;1264;139708;-84
2024/04/15 08:42:42;;;;;;;8.40;2.50;;;;;;;11.51;54.59;99545.39;102719;1267;100523;-77
2024/04/15 08:45:17;;;;;;;8.20;2.60;;;;;;;11.52;54.27;99542.21;102615;1267;137090;-80
2024/04/15 08:47:52;;;;;;;7.00;2.40;;;;;;;11.45;54.20;99530.86;102653;1263;100424;-81
2024/04/15 08:50:20;;;;;;;9.90;2.90;;;;;;;11.39;54.05;99530.46;102431;1267;141480;-82
2024/04/15 08:52:47;;;;;;;7.10;2.60;;;;;;;11.61;54.17;99528.02;102371;1264;106220;-80
2024/04/15 08:55:14;;;;;;;6.30;2.30;;;;;;;12.47;53.54;99520.09;102589;1265;100952;-80
2024/04/15 08:57:42;;;;;;;5.40;2.10;;;;;;;13.00;52.21;99520.46;102392;1267;138569;-80
2024/04/15 09:00:12;;;;;;;7.90;2.50;;;;;;;13.12;51.62;99524.88;102392;1264;109747;-80
2024/04/15 09:02:40;;;;;;;7.30;2.20;;;;;;;13.13;51.38;99529.39;103834;1264;139759;-80
2024/04/15 09:05:09;;;;;;;11.10;2.20;;;;;;;13.11;50.71;99522.30;103261;1264;106745;-81
2024/04/15 09:07:36;;;;;;;7.40;2.50;;;;;;;13.02;50.21;99516.19;102645;1264;100545;-74
2024/04/15 09:10:05;;;;;;;7.10;2.20;;;;;;;12.80;50.20;99527.30;102349;1267;138326;-75
2024/04/15 09:12:38;;;;;;;7.20;2.30;;;;;;;12.71;50.37;99528.47;102544;1267;100529;-76
2024/04/15 09:15:09;;;;;;;7.10;2.10;;;;;;;12.84;50.44;99532.81;102456;1264;138891;-74
2024/04/15 09:17:38;;;;;;;7.10;2.20;;;;;;;12.88;49.98;99530.35;103875;1264;107944;-77
2024/04/15 09:20:09;;;;;;;8.10;2.60;;;;;;;12.77;49.99;99526.05;102818;1267;138428;-74
2024/04/15 09:22:38;;;;;;;10.30;2.40;;;;;;;12.74;50.15;99524.64;103635;1264;107499;-76
2024/04/15 09:25:06;;;;;;;4.40;2.10;;;;;;;12.90;50.14;99518.23;102502;1267;100755;-74
2024/04/15 09:27:33;;;;;;;4.20;2.30;;;;;;;13.16;49.84;99519.40;102498;1264;138170;-73
2024/04/15 09:30:00;;;;;;;8.80;2.50;;;;;;;13.43;49.53;99519.70;102492;1265;107439;-73
2024/04/15 09:32:28;;;;;;;7.00;2.30;;;;;;;13.58;49.04;99513.25;102539;1265;139245;-76
2024/04/15 09:34:58;;;;;;;7.60;2.50;;;;;;;13.89;48.83;99509.05;102632;1265;108779;-74
2024/04/15 09:37:25;;;;;;;9.80;2.20;;;;;;;14.19;48.57;99501.36;102567;1268;100536;-75
2024/04/15 09:39:54;;;;;;;7.60;2.70;;;;;;;14.61;48.01;99506.05;102474;1267;138513;-76
2024/04/15 09:42:22;;;;;;;5.00;2.30;;;;;;;14.79;46.99;99512.49;102525;1264;108841;-76
2024/04/15 09:44:50;;;;;;;8.40;2.20;;;;;;;15.30;46.95;99503.70;102473;1265;138218;-77
2024/04/15 09:47:18;;;;;;;6.00;2.40;;;;;;;16.13;46.42;99495.70;102665;1265;107998;-75
2024/04/15 09:49:47;;;;;;;6.40;2.50;;;;;;;17.06;45.33;99491.19;102586;1264;100415;-76
2024/04/15 09:52:22;;;;;;;7.20;2.20;;;;;;;18.08;44.03;99480.06;102660;1263;138410;-75
2024/04/15 09:54:53;;;;;;;9.00;2.40;;;;;;;18.74;42.41;99471.30;102636;1267;107612;-77
2024/04/15 09:57:23;;;;;;;7.10;2.20;;;;;;;18.82;41.54;99468.80;102708;1264;139678;-76
2024/04/15 09:59:57;;;;;;;8.80;2.00;;;;;;;18.79;40.27;99470.58;102806;1266;106818;-77
2024/04/15 10:02:31;;;;;;;7.70;2.30;;;;;;;19.16;40.14;99468.48;102679;1264;138655;-75
2024/04/15 10:05:02;;;;;;;7.80;2.30;;;;;;;19.54;39.77;99462.67;102659;1265;112786;-72
2024/04/15 10:07:30;;;;;;;5.50;2.10;;;;;;;20.23;39.10;99454.73;102557;1267;107613;-77
2024/04/15 10:09:58;;;;;;;8.70;2.20;;;;;;;20.43;37.95;99453.59;103032;1263;141301;-76
2024/04/15 10:12:25;;;;;;;6.20;2.10;;;;;;;20.59;37.62;99455.42;103969;1264;106291;-76
2024/04/15 10:14:53;;;;;;;6.00;2.30;;;;;;;20.74;36.81;99447.95;102995;1267;138385;-76
2024/04/15 10:17:25;;;;;;;9.50;2.50;;;;;;;20.72;36.96;99442.50;102595;1265;112462;-75
2024/04/15 10:19:52;;;;;;;6.60;2.40;;;;;;;20.79;36.54;99439.18;103967;1264;108661;-75
2024/04/15 10:22:23;;;;;;;4.90;2.00;;;;;;;20.63;35.35;99443.61;103924;1265;138317;-75
2024/04/15 10:24:50;;;;;;;10.80;2.20;;;;;;;20.00;35.25;99436.27;104027;1265;108055;-75
2024/04/15 10:27:18;;;;;;;6.60;2.20;;;;;;;19.52;35.42;99427.38;103568;1264;139628;-74
2024/04/15 10:29:45;;;;;;;7.60;2.20;;;;;;;19.33;36.28;99419.38;102809;1267;114027;-78
2024/04/15 10:32:13;;;;;;;6.20;2.10;;;;;;;19.49;36.67;99417.89;103438;1265;138832;-79
2024/04/15 10:34:44;;;;;;;8.10;2.30;;;;;;;19.69;35.71;99418.52;102922;1265;100535;-79
2024/04/15 10:37:14;;;;;;;10.00;2.20;;;;;;;19.44;36.12;99405.14;102671;1267;107658;-78
2024/04/15 10:39:47;;;;;;;6.10;1.80;;;;;;;19.47;36.03;99407.30;102394;1264;139055;-79
2024/04/15 10:42:15;;;;;;;7.60;2.30;;;;;;;19.68;35.71;99400.27;103292;1266;112983;-79
2024/04/15 10:44:42;;;;;;;9.30;2.10;;;;;;;19.90;35.98;99399.66;103340;1264;138996;-79
2024/04/15 10:47:09;;;;;;;9.40;2.50;;;;;;;20.09;35.57;99407.83;102768;1267;100561;-76
2024/04/15 10:49:37;;;;;;;7.20;2.50;;;;;;;19.74;35.13;99400.34;102696;1267;107976;-71
2024/04/15 10:52:05;;;;;;;7.60;2.10;;;;;;;19.64;35.58;99397.07;102717;1265;138931;-70
2024/04/15 10:54:33;;;;;;;5.80;2.20;;;;;;;19.71;35.51;99394.96;102865;1264;113673;-71
2024/04/15 10:57:02;;;;;;;7.50;2.20;;;;;;;19.59;35.73;99401.05;102438;1270;139960;-71
2024/04/15 10:59:31;;;;;;;7.70;2.30;;;;;;;19.75;36.07;99396.05;103014;1267;100411;-76
2024/04/15 11:01:59;;;;;;;6.10;1.60;;;;;;;20.14;35.77;99389.91;103104;1267;107435;-76
2024/04/15 11:04:28;;;;;;;6.30;1.80;;;;;;;20.53;35.86;99381.95;102753;1267;139085;-70
2024/04/15 11:06:55;;;;;;;7.40;2.20;;;;;;;20.83;34.97;99386.39;102928;1267;113050;-72
2024/04/15 11:09:23;;;;;;;5.40;1.50;;;;;;;20.92;34.14;99385.18;102621;1267;138531;-65
2024/04/15 11:11:52;;;;;;;3.90;2.30;;;;;;;20.59;33.92;99376.19;102776;1267;102215;-68
2024/04/15 11:14:20;;;;;;;6.70;2.10;;;;;;;20.29;33.54;99388.95;103861;1265;138465;-65
2024/04/15 11:16:48;;;;;;;6.10;2.20;;;;;;;19.56;33.64;99381.71;103970;1267;99529;-66
2024/04/15 11:19:16;;;;;;;6.50;1.90;;;;;;;18.88;34.31;99375.35;103090;1265;113399;-66
2024/04/15 11:21:43;;;;;;;5.20;1.50;;;;;;;18.64;35.24;99368.89;103717;1267;138827;-70